Hauptseite
METAR-TAF:

METAR-TAF

Flughäfen :

Dschibuti, Dschibuti

Flughafen Dschibuti

Breite: 11-33N, Länge: 043-10E, Höhe: 49 m

Beobachtung

Neuester Wetterbericht von vor 3 Stunden und 48 Minuten, um 20:00 UTC
Windstille
Temperatur 33°C
Luftfeuchtigkeit 67%
Luftdruck 1004 hPa
Sichtweite 10 km oder mehr
keine Wolken unter 1500 m und keine Kumulonimbus oder Gewitterwolken

METAR: HDAM 162000Z 00000KT CAVOK 33/26 Q1004

Zeit: 02:48 (23:48 UTC)

Prognose

Neuester Wetterbericht von vor 48 Minuten, um 23:00 UTC
Gültige Prognose vom 17 um 00 UTC bis 17 um 24 UTC
Wind 3 kt aus unterschiedlichen Richtungen
Sichtweite: 8000 m
Leicht bewölkt in der Höhe von 3000 ft, Kumulonimbus.
trockener Dunst
Übergehend zu
vom 17 um 06 UTC bis 17 um 12 UTC
Wind 16 kt aus West
Staubtreiben

TAF: HDAM 162300Z 1700/1724 VRB03KT 8000 HZ FEW030CB BECMG 1706/1712 26016KT BLDU NSC

Wetterbeobachtungen und Prognosen von mehr als 4000 Flughäfen (METAR und TAF Bericht).

Die verfügbaren Stationen werden durch gelbe und rote Markierungen auf der Karte dargestellt.

Führen Sie die Maus auf sie, um den Namen der Station zu sehen.

Darauf klicken, um die Beobachtung von Wetterbeobachtungen und Prognosen zu sehen.

Um die Karte zu ändern : klicken Sie auf den grünen Tasten mit einem schwarzen Kreuz Zum Vergrößern, auf den grünen Button mit einem Gedankenstrich zu verkleinern, oder auf die grünen Pfeile für benachbarte Karten.


METAR-TAF: